createdAt,value
2023-02-12T00:00:10.772Z,39.67
2023-02-12T00:02:43.683Z,34.70
2023-02-12T00:05:11.052Z,36.30
2023-02-12T00:07:38.250Z,34.20
2023-02-12T00:10:05.630Z,35.97
2023-02-12T00:12:32.811Z,38.20
2023-02-12T00:15:00.114Z,38.70
2023-02-12T00:17:27.325Z,38.67
2023-02-12T00:19:54.514Z,40.97
2023-02-12T00:22:23.908Z,37.80
2023-02-12T00:24:51.187Z,38.17
2023-02-12T00:27:18.410Z,41.23
2023-02-12T00:29:45.700Z,39.27
2023-02-12T00:32:14.270Z,41.77
2023-02-12T00:34:41.752Z,42.77
2023-02-12T00:37:09.024Z,39.83
2023-02-12T00:39:38.003Z,38.97
2023-02-12T00:42:05.355Z,43.57
2023-02-12T00:47:17.345Z,42.80
2023-02-12T00:49:44.573Z,42.97
2023-02-12T00:52:30.595Z,45.37
2023-02-12T00:54:57.947Z,40.43
2023-02-12T00:57:25.234Z,43.07
2023-02-12T00:59:52.549Z,41.03
2023-02-12T01:02:19.863Z,44.60
2023-02-12T01:04:47.428Z,41.23
2023-02-12T01:07:14.760Z,41.43
2023-02-12T01:09:42.261Z,42.73
2023-02-12T01:12:09.554Z,40.07
2023-02-12T01:14:36.794Z,44.13
2023-02-12T01:17:04.306Z,46.07
2023-02-12T01:19:31.503Z,38.73
2023-02-12T01:22:17.578Z,44.60
2023-02-12T01:24:44.819Z,40.30
2023-02-12T01:27:12.101Z,39.13
2023-02-12T01:29:39.815Z,41.70
2023-02-12T01:32:08.089Z,41.97
2023-02-12T01:34:35.390Z,41.23
2023-02-12T01:37:02.563Z,42.57
2023-02-12T01:39:29.817Z,41.77
2023-02-12T01:41:57.087Z,42.67
2023-02-12T01:44:25.905Z,43.60
2023-02-12T01:47:00.146Z,40.73
2023-02-12T01:49:32.536Z,38.90
2023-02-12T01:52:01.994Z,41.40
2023-02-12T01:54:29.721Z,46.20
2023-02-12T01:56:57.246Z,43.30
2023-02-12T01:59:25.946Z,44.77
2023-02-12T02:01:55.190Z,39.87
2023-02-12T02:04:24.654Z,36.83
2023-02-12T02:06:57.924Z,40.20
2023-02-12T02:09:25.869Z,41.37
2023-02-12T02:12:14.344Z,40.33
2023-02-12T02:14:42.383Z,43.73
2023-02-12T02:17:28.856Z,42.43
2023-02-12T02:20:15.129Z,39.87
2023-02-12T02:22:45.372Z,43.80
2023-02-12T02:25:28.068Z,40.33
2023-02-12T02:28:14.002Z,40.27
2023-02-12T02:30:45.582Z,42.07
2023-02-12T02:33:16.052Z,40.60
2023-02-12T02:35:43.337Z,41.57
2023-02-12T02:38:13.714Z,41.87
2023-02-12T02:40:45.949Z,43.37
2023-02-12T02:43:18.425Z,43.17
2023-02-12T02:45:53.637Z,44.73
2023-02-12T02:48:30.227Z,46.47
2023-02-12T02:51:00.442Z,43.90
2023-02-12T02:53:30.730Z,46.60
2023-02-12T02:55:59.868Z,44.37
2023-02-12T02:58:38.812Z,45.00
2023-02-12T03:01:18.078Z,42.13
2023-02-12T03:03:49.705Z,45.07
2023-02-12T03:06:28.016Z,42.27
2023-02-12T03:08:58.002Z,42.57
2023-02-12T03:11:27.561Z,41.73
2023-02-12T03:14:03.906Z,41.87
2023-02-12T03:16:43.837Z,38.23
2023-02-12T03:19:22.275Z,45.50
2023-02-12T03:21:52.503Z,41.93
2023-02-12T03:24:22.683Z,42.50
2023-02-12T03:26:56.885Z,41.60
2023-02-12T03:29:24.145Z,39.57
2023-02-12T03:32:06.395Z,44.70
2023-02-12T03:34:53.900Z,41.00
2023-02-12T03:37:30.031Z,39.93
2023-02-12T03:40:06.392Z,42.57
2023-02-12T03:42:53.885Z,42.03
2023-02-12T03:45:44.613Z,40.57
2023-02-12T03:48:21.110Z,43.47
2023-02-12T03:50:54.576Z,43.33
2023-02-12T03:53:21.919Z,44.57
2023-02-12T03:55:54.069Z,42.73
2023-02-12T03:58:24.749Z,38.73
2023-02-12T04:00:52.123Z,44.53
2023-02-12T04:03:19.465Z,45.33
2023-02-12T04:05:46.664Z,44.60
2023-02-12T04:08:14.174Z,40.53
2023-02-12T04:10:44.237Z,46.37
2023-02-12T04:13:22.780Z,45.20
2023-02-12T04:15:59.601Z,48.50
2023-02-12T04:18:41.873Z,50.77
2023-02-12T04:21:09.112Z,46.23
2023-02-12T04:23:59.777Z,48.93
2023-02-12T04:26:43.464Z,53.67
2023-02-12T04:29:18.026Z,48.50
2023-02-12T04:31:59.588Z,51.00
2023-02-12T04:34:29.944Z,49.60
2023-02-12T04:37:03.328Z,53.87
2023-02-12T04:39:32.222Z,51.80
2023-02-12T04:42:00.580Z,50.03
2023-02-12T04:44:29.028Z,49.50
2023-02-12T04:46:56.321Z,49.63
2023-02-12T04:49:24.245Z,48.20
2023-02-12T04:51:52.041Z,51.23
2023-02-12T04:54:20.159Z,47.37
2023-02-12T04:56:47.883Z,50.90
2023-02-12T04:59:15.725Z,51.60
2023-02-12T05:01:44.129Z,55.37
2023-02-12T05:04:12.859Z,52.30
2023-02-12T05:06:40.711Z,49.87
2023-02-12T05:09:08.434Z,53.60
2023-02-12T05:11:35.572Z,49.83
2023-02-12T05:14:02.925Z,49.90
2023-02-12T05:16:30.110Z,53.93
2023-02-12T05:19:16.140Z,58.20
2023-02-12T05:21:43.376Z,54.37
2023-02-12T05:24:10.684Z,55.63
2023-02-12T05:26:38.185Z,56.63
2023-02-12T05:29:05.673Z,57.10
2023-02-12T05:31:32.929Z,53.50
2023-02-12T05:34:00.266Z,50.13
2023-02-12T05:36:27.960Z,54.20
2023-02-12T05:38:58.319Z,54.77
2023-02-12T05:41:25.873Z,56.27
2023-02-12T05:43:53.734Z,55.33
2023-02-12T05:46:21.970Z,58.07
2023-02-12T05:48:49.634Z,48.50
2023-02-12T05:51:19.900Z,51.80
2023-02-12T05:53:47.174Z,56.03
2023-02-12T05:56:15.926Z,54.00
2023-02-12T05:58:45.209Z,53.27
2023-02-12T06:01:13.501Z,51.43
2023-02-12T06:03:40.829Z,53.73
2023-02-12T06:06:08.166Z,50.90
2023-02-12T06:08:35.608Z,54.07
2023-02-12T06:11:03.908Z,52.17
2023-02-12T06:13:31.744Z,53.00
2023-02-12T06:15:59.673Z,52.23
2023-02-12T06:18:27.429Z,52.57
2023-02-12T06:20:54.888Z,49.13
2023-02-12T06:23:22.835Z,50.67
2023-02-12T06:25:50.868Z,49.70
2023-02-12T06:28:18.429Z,47.63
2023-02-12T06:30:45.686Z,46.47
2023-02-12T06:33:12.959Z,42.63
2023-02-12T06:35:40.528Z,46.43
2023-02-12T06:38:08.484Z,47.53
2023-02-12T06:40:35.728Z,44.10
2023-02-12T06:43:02.889Z,43.97
2023-02-12T06:45:30.172Z,42.10
2023-02-12T06:47:57.337Z,42.23
2023-02-12T06:50:25.585Z,39.13
2023-02-12T06:52:53.014Z,40.50
2023-02-12T06:55:20.292Z,40.73
2023-02-12T06:57:47.742Z,36.53
2023-02-12T07:00:15.065Z,35.20
2023-02-12T07:02:42.346Z,36.90
2023-02-12T07:05:10.757Z,41.60
2023-02-12T07:07:38.003Z,41.40
2023-02-12T07:10:05.421Z,49.47
2023-02-12T07:12:33.970Z,69.30
2023-02-12T07:15:01.124Z,35.40
2023-02-12T07:17:30.914Z,34.70
2023-02-12T07:19:58.116Z,33.43
2023-02-12T07:22:25.334Z,30.13
2023-02-12T07:24:52.587Z,33.07
2023-02-12T07:27:19.784Z,32.40
2023-02-12T07:29:46.960Z,30.83
2023-02-12T07:32:14.378Z,31.83
2023-02-12T07:34:41.658Z,30.73
2023-02-12T07:37:09.075Z,30.20
2023-02-12T07:39:36.268Z,25.43
2023-02-12T07:42:03.579Z,31.87
2023-02-12T07:44:31.375Z,31.73
2023-02-12T07:46:58.599Z,32.47
2023-02-12T07:49:25.849Z,28.10
2023-02-12T07:51:53.138Z,29.77
2023-02-12T07:54:20.404Z,30.43
2023-02-12T07:56:47.729Z,33.03
2023-02-12T07:59:16.415Z,31.57
2023-02-12T08:01:46.502Z,27.73
2023-02-12T08:04:32.905Z,27.67
2023-02-12T08:07:00.357Z,31.00
2023-02-12T08:09:28.619Z,29.57
2023-02-12T08:11:55.997Z,30.77
2023-02-12T08:14:23.305Z,32.10
2023-02-12T08:16:50.913Z,31.73
2023-02-12T08:19:22.464Z,30.27
2023-02-12T08:21:52.958Z,30.23
2023-02-12T08:24:22.072Z,31.73
2023-02-12T08:26:49.408Z,28.43
2023-02-12T08:29:18.739Z,33.63
2023-02-12T08:31:47.065Z,29.43
2023-02-12T08:34:21.724Z,31.03
2023-02-12T08:36:49.778Z,29.77
2023-02-12T08:39:17.912Z,31.73
2023-02-12T08:41:46.237Z,30.27
2023-02-12T08:44:14.058Z,30.73
2023-02-12T08:46:44.118Z,31.87
2023-02-12T08:49:15.550Z,33.27
2023-02-12T08:51:44.483Z,30.97
2023-02-12T08:54:13.137Z,32.27
2023-02-12T08:56:40.655Z,29.07
2023-02-12T08:59:08.677Z,30.53
2023-02-12T09:01:43.622Z,45.43
2023-02-12T09:04:15.470Z,32.30
2023-02-12T09:06:42.865Z,31.67
2023-02-12T09:09:10.280Z,29.60
2023-02-12T09:11:37.786Z,30.53
2023-02-12T09:14:06.673Z,30.10
2023-02-12T09:16:35.444Z,29.67
2023-02-12T09:19:03.077Z,33.63
2023-02-12T09:21:30.453Z,29.43
2023-02-12T09:23:57.646Z,28.57
2023-02-12T09:26:28.803Z,28.10
2023-02-12T09:28:56.367Z,28.10
2023-02-12T09:31:26.645Z,28.90
2023-02-12T09:33:55.568Z,29.03
2023-02-12T09:36:23.138Z,27.67
2023-02-12T09:38:54.209Z,26.37
2023-02-12T09:41:40.235Z,23.63
2023-02-12T09:44:07.482Z,24.83
2023-02-12T09:46:41.966Z,26.57
2023-02-12T09:49:09.866Z,23.73
2023-02-12T09:51:38.791Z,28.17
2023-02-12T09:54:07.266Z,22.77
2023-02-12T09:56:36.203Z,26.37
2023-02-12T09:59:06.264Z,23.83
2023-02-12T10:01:33.716Z,22.77
2023-02-12T10:04:01.343Z,23.33
2023-02-12T10:06:56.258Z,21.23
2023-02-12T10:09:35.647Z,22.30
2023-02-12T10:12:09.121Z,21.40
2023-02-12T10:14:39.400Z,19.83
2023-02-12T10:17:06.982Z,19.33
2023-02-12T10:19:44.781Z,17.37
2023-02-12T10:22:21.479Z,17.33
2023-02-12T10:25:07.241Z,17.00
2023-02-12T10:27:39.862Z,19.83
2023-02-12T10:30:19.664Z,18.90
2023-02-12T10:33:05.484Z,18.50
2023-02-12T10:35:33.400Z,15.93
2023-02-12T10:38:19.919Z,18.40
2023-02-12T10:40:47.580Z,17.30
2023-02-12T10:43:14.984Z,14.80
2023-02-12T10:45:43.248Z,17.23
2023-02-12T10:48:22.338Z,15.73
2023-02-12T10:50:59.531Z,16.87
2023-02-12T10:53:30.511Z,17.00
2023-02-12T10:56:18.032Z,15.03
2023-02-12T10:58:51.349Z,12.97
2023-02-12T11:01:22.138Z,17.17
2023-02-12T11:03:49.505Z,15.30
2023-02-12T11:06:21.671Z,14.07
2023-02-12T11:08:48.964Z,12.70
2023-02-12T11:11:32.126Z,14.57
2023-02-12T11:14:01.442Z,15.67
2023-02-12T11:16:29.901Z,16.60
2023-02-12T11:19:04.887Z,13.17
2023-02-12T11:21:32.766Z,10.17
2023-02-12T11:24:19.905Z,15.17
2023-02-12T11:26:47.120Z,11.73
2023-02-12T11:29:23.557Z,12.27
2023-02-12T11:32:01.295Z,24.73
2023-02-12T11:34:29.806Z,17.93
2023-02-12T11:36:57.643Z,21.80
2023-02-12T11:39:33.132Z,10.13
2023-02-12T11:42:04.738Z,12.87
2023-02-12T11:44:37.170Z,11.40
2023-02-12T11:47:10.482Z,11.17
2023-02-12T11:49:44.443Z,12.50
2023-02-12T11:52:21.364Z,12.17
2023-02-12T11:54:49.653Z,12.93
2023-02-12T11:57:36.167Z,12.20
2023-02-12T12:00:07.474Z,10.53
2023-02-12T12:02:39.199Z,11.60
2023-02-12T12:05:16.196Z,14.20
2023-02-12T12:07:45.856Z,10.43
2023-02-12T12:10:16.541Z,8.67
2023-02-12T12:12:51.196Z,10.47
2023-02-12T12:15:37.093Z,14.80
2023-02-12T12:18:26.028Z,9.67
2023-02-12T12:20:57.758Z,11.17
2023-02-12T12:23:28.165Z,13.73
2023-02-12T12:25:57.963Z,11.23
2023-02-12T12:28:35.605Z,12.80
2023-02-12T12:31:13.104Z,11.27
2023-02-12T12:33:52.775Z,12.77
2023-02-12T12:36:38.945Z,9.73
2023-02-12T12:39:12.081Z,11.33
2023-02-12T12:41:49.868Z,10.87
2023-02-12T12:44:30.070Z,14.47
2023-02-12T12:47:06.921Z,8.20
2023-02-12T12:49:54.684Z,8.60
2023-02-12T12:52:30.909Z,8.53
2023-02-12T12:54:58.183Z,14.77
2023-02-12T12:57:40.706Z,11.20
2023-02-12T13:00:31.640Z,14.07
2023-02-12T13:03:11.228Z,13.07
2023-02-12T13:06:09.081Z,12.27
2023-02-12T13:08:55.446Z,10.93
2023-02-12T13:11:22.703Z,14.53
2023-02-12T13:13:51.294Z,11.33
2023-02-12T13:16:18.581Z,11.27
2023-02-12T13:19:05.194Z,13.10
2023-02-12T13:21:49.438Z,10.97
2023-02-12T13:24:16.833Z,13.93
2023-02-12T13:26:55.676Z,16.87
2023-02-12T13:29:31.953Z,12.10
2023-02-12T13:32:02.368Z,14.73
2023-02-12T13:34:31.505Z,14.27
2023-02-12T13:37:00.944Z,14.20
2023-02-12T13:39:33.292Z,12.53
2023-02-12T13:42:11.770Z,12.47
2023-02-12T13:44:57.795Z,12.63
2023-02-12T13:47:35.863Z,14.30
2023-02-12T13:50:21.806Z,10.03
2023-02-12T13:52:58.945Z,13.40
2023-02-12T13:55:30.015Z,12.83
2023-02-12T13:58:17.520Z,14.50
2023-02-12T14:00:57.598Z,12.83
2023-02-12T14:03:25.553Z,11.70
2023-02-12T14:06:09.518Z,9.23
2023-02-12T14:08:38.176Z,9.43
2023-02-12T14:11:07.503Z,8.83
2023-02-12T14:13:37.599Z,8.97
2023-02-12T14:16:35.924Z,8.40
2023-02-12T14:19:22.074Z,9.90
2023-02-12T14:21:49.446Z,8.37
2023-02-12T14:24:35.589Z,10.80
2023-02-12T14:27:23.148Z,9.70
2023-02-12T14:30:09.281Z,8.13
2023-02-12T14:32:46.104Z,12.83
2023-02-12T14:35:32.213Z,8.07
2023-02-12T14:38:03.015Z,9.30
2023-02-12T14:40:44.086Z,9.07
2023-02-12T14:46:23.695Z,7.07
2023-02-12T14:48:56.161Z,9.97
2023-02-12T14:51:47.765Z,7.57
2023-02-12T14:54:22.445Z,9.57
2023-02-12T14:56:50.187Z,9.30
2023-02-12T14:59:20.438Z,12.33
2023-02-12T15:01:48.818Z,9.00
2023-02-12T15:04:26.996Z,10.93
2023-02-12T15:06:59.909Z,8.53
2023-02-12T15:09:36.862Z,10.90
2023-02-12T15:12:08.386Z,9.83
2023-02-12T15:14:37.455Z,10.17
2023-02-12T15:17:14.925Z,8.90
2023-02-12T15:19:52.352Z,10.63
2023-02-12T15:22:25.102Z,9.43
2023-02-12T15:24:52.646Z,8.67
2023-02-12T15:27:39.176Z,9.23
2023-02-12T15:30:10.398Z,12.37
2023-02-12T15:32:39.174Z,12.77
2023-02-12T15:35:07.223Z,10.50
2023-02-12T15:37:34.774Z,10.43
2023-02-12T15:40:05.664Z,11.30
2023-02-12T15:42:34.605Z,12.33
2023-02-12T15:45:11.123Z,10.90
2023-02-12T15:47:38.561Z,11.80
2023-02-12T15:50:06.045Z,13.20
2023-02-12T15:52:35.272Z,11.60
2023-02-12T15:55:06.044Z,10.43
2023-02-12T15:57:33.673Z,11.57
2023-02-12T16:00:10.838Z,11.93
2023-02-12T16:02:40.654Z,12.67
2023-02-12T16:05:08.196Z,12.80
2023-02-12T16:07:36.637Z,11.30
2023-02-12T16:10:05.012Z,12.63
2023-02-12T16:12:34.655Z,12.40
2023-02-12T16:15:03.300Z,12.87
2023-02-12T16:17:34.798Z,12.13
2023-02-12T16:20:05.098Z,14.03
2023-02-12T16:22:39.826Z,12.70
2023-02-12T16:25:27.739Z,13.60
2023-02-12T16:28:01.174Z,16.10
2023-02-12T16:30:30.515Z,13.73
2023-02-12T16:32:57.765Z,15.23
2023-02-12T16:35:25.177Z,15.33
2023-02-12T16:37:56.406Z,14.23
2023-02-12T16:40:26.566Z,12.10
2023-02-12T16:42:53.811Z,13.03
2023-02-12T16:45:27.530Z,14.93
2023-02-12T16:48:04.182Z,15.37
2023-02-12T16:50:33.581Z,11.73
2023-02-12T16:53:02.017Z,14.77
2023-02-12T16:55:29.480Z,13.93
2023-02-12T16:57:56.843Z,14.17
2023-02-12T17:00:24.825Z,13.50
2023-02-12T17:02:54.658Z,13.43
2023-02-12T17:05:23.277Z,12.67
2023-02-12T17:07:51.018Z,14.03
2023-02-12T17:10:18.421Z,12.23
2023-02-12T17:12:49.827Z,14.53
2023-02-12T17:15:30.972Z,12.97
2023-02-12T17:17:59.330Z,13.73
2023-02-12T17:20:26.642Z,12.73
2023-02-12T17:22:54.910Z,13.80
2023-02-12T17:25:22.219Z,13.60
2023-02-12T17:27:49.491Z,12.67
2023-02-12T17:30:17.737Z,12.37
2023-02-12T17:32:45.062Z,13.53
2023-02-12T17:35:12.618Z,12.93
2023-02-12T17:37:39.837Z,13.37
2023-02-12T17:40:07.603Z,13.00
2023-02-12T17:42:34.861Z,14.00
2023-02-12T17:45:02.118Z,15.83
2023-02-12T17:47:31.276Z,12.40
2023-02-12T17:50:00.539Z,14.33
2023-02-12T17:52:27.782Z,14.43
2023-02-12T17:54:55.087Z,13.93
2023-02-12T17:57:22.354Z,13.80
2023-02-12T18:00:08.193Z,16.63
2023-02-12T18:02:55.406Z,13.73
2023-02-12T18:05:22.648Z,15.83
2023-02-12T18:07:49.915Z,15.60
2023-02-12T18:10:17.264Z,18.77
2023-02-12T18:12:44.525Z,15.50
2023-02-12T18:15:12.078Z,15.43
2023-02-12T18:17:41.599Z,17.77
2023-02-12T18:20:09.291Z,16.97
2023-02-12T18:22:36.600Z,18.00
2023-02-12T18:25:04.029Z,41.07
2023-02-12T18:27:31.370Z,57.20
2023-02-12T18:29:58.637Z,26.47
2023-02-12T18:32:25.995Z,19.27
2023-02-12T18:34:53.293Z,19.43
2023-02-12T18:37:20.580Z,17.13
2023-02-12T18:39:48.033Z,19.60
2023-02-12T18:42:15.348Z,19.77
2023-02-12T18:44:43.067Z,18.83
2023-02-12T18:47:10.390Z,18.53
2023-02-12T18:49:37.635Z,20.00
2023-02-12T18:52:04.969Z,19.60
2023-02-12T18:54:32.348Z,19.63
2023-02-12T18:56:59.631Z,20.90
2023-02-12T18:59:27.422Z,22.10
2023-02-12T19:01:54.940Z,20.87
2023-02-12T19:04:23.767Z,21.77
2023-02-12T19:06:52.453Z,21.27
2023-02-12T19:09:21.858Z,23.03
2023-02-12T19:11:50.139Z,22.13
2023-02-12T19:14:18.392Z,22.00
2023-02-12T19:16:46.146Z,26.50
2023-02-12T19:19:14.090Z,24.47
2023-02-12T19:21:41.930Z,21.93
2023-02-12T19:24:11.733Z,23.70
2023-02-12T19:26:39.870Z,24.93
2023-02-12T19:29:07.164Z,23.30
2023-02-12T19:31:35.889Z,22.30
2023-02-12T19:34:05.490Z,23.50
2023-02-12T19:36:33.784Z,23.70
2023-02-12T19:39:01.015Z,21.67
2023-02-12T19:41:29.684Z,23.97
2023-02-12T19:43:58.427Z,25.67
2023-02-12T19:46:28.818Z,24.30
2023-02-12T19:49:00.702Z,22.77
2023-02-12T19:51:29.807Z,21.53
2023-02-12T19:54:00.195Z,23.53
2023-02-12T19:56:27.537Z,23.70
2023-02-12T19:58:56.232Z,24.17
2023-02-12T20:01:23.625Z,23.97
2023-02-12T20:03:51.125Z,25.60
2023-02-12T20:06:23.064Z,23.33
2023-02-12T20:08:50.705Z,23.07
2023-02-12T20:11:18.960Z,23.00
2023-02-12T20:13:46.474Z,24.47
2023-02-12T20:16:18.517Z,24.67
2023-02-12T20:18:47.179Z,22.90
2023-02-12T20:21:32.550Z,21.67
2023-02-12T20:24:01.771Z,22.80
2023-02-12T20:26:30.530Z,22.37
2023-02-12T20:28:57.846Z,37.97
2023-02-12T20:31:27.766Z,99.43
2023-02-12T20:33:56.214Z,45.20
2023-02-12T20:36:24.223Z,39.37
2023-02-12T20:38:52.857Z,33.43
2023-02-12T20:41:20.469Z,31.23
2023-02-12T20:43:47.708Z,24.73
2023-02-12T20:46:16.447Z,50.23
2023-02-12T20:48:44.220Z,54.20
2023-02-12T20:51:15.864Z,47.17
2023-02-12T20:53:43.555Z,23.67
2023-02-12T20:56:14.190Z,21.47
2023-02-12T20:58:44.652Z,24.27
2023-02-12T21:01:13.506Z,23.90
2023-02-12T21:03:40.989Z,21.23
2023-02-12T21:06:08.512Z,23.70
2023-02-12T21:08:36.510Z,23.50
2023-02-12T21:11:11.794Z,24.20
2023-02-12T21:13:39.288Z,23.53
2023-02-12T21:16:08.443Z,23.07
2023-02-12T21:18:35.779Z,22.83
2023-02-12T21:21:04.410Z,23.97
2023-02-12T21:23:31.694Z,24.00
2023-02-12T21:26:12.747Z,24.13
2023-02-12T21:28:40.366Z,23.30
2023-02-12T21:31:13.929Z,26.67
2023-02-12T21:33:42.225Z,34.37
2023-02-12T21:36:10.993Z,36.23
2023-02-12T21:38:39.020Z,43.77
2023-02-12T21:41:10.588Z,39.17
2023-02-12T21:43:38.408Z,39.50
2023-02-12T21:46:05.844Z,37.20
2023-02-12T21:48:33.801Z,63.73
2023-02-12T21:51:01.512Z,62.70
2023-02-12T21:53:29.153Z,53.30
2023-02-12T21:55:56.599Z,42.57
2023-02-12T21:58:24.601Z,36.93
2023-02-12T22:00:52.686Z,37.57
2023-02-12T22:03:23.059Z,29.07
2023-02-12T22:05:51.291Z,30.30
2023-02-12T22:08:18.520Z,34.03
2023-02-12T22:10:45.714Z,29.10
2023-02-12T22:13:12.982Z,32.97
2023-02-12T22:15:40.455Z,28.20
2023-02-12T22:18:08.507Z,30.97
2023-02-12T22:20:36.949Z,29.23
2023-02-12T22:23:04.428Z,32.87
2023-02-12T22:25:31.645Z,29.37
2023-02-12T22:27:59.115Z,26.50
2023-02-12T22:30:26.474Z,29.10
2023-02-12T22:32:53.693Z,31.63
2023-02-12T22:35:20.994Z,30.80
2023-02-12T22:37:48.254Z,31.73
2023-02-12T22:40:16.140Z,27.83
2023-02-12T22:42:43.381Z,33.30
2023-02-12T22:45:12.996Z,31.47
2023-02-12T22:47:40.234Z,30.30
2023-02-12T22:50:07.992Z,30.00
2023-02-12T22:52:35.426Z,32.17
2023-02-12T22:55:03.084Z,29.07
2023-02-12T22:57:30.531Z,28.23
2023-02-12T22:59:57.709Z,28.30
2023-02-12T23:02:26.152Z,31.57
2023-02-12T23:04:53.382Z,31.17
2023-02-12T23:07:20.620Z,29.37
2023-02-12T23:09:47.922Z,29.43
2023-02-12T23:12:15.375Z,28.80
2023-02-12T23:14:42.640Z,29.60
2023-02-12T23:17:09.889Z,27.10
2023-02-12T23:19:37.171Z,32.57
2023-02-12T23:22:04.472Z,35.37
2023-02-12T23:24:31.801Z,28.37
2023-02-12T23:26:59.081Z,30.00
2023-02-12T23:29:26.309Z,31.00
2023-02-12T23:31:53.733Z,29.87
2023-02-12T23:34:21.136Z,29.37
2023-02-12T23:36:48.317Z,32.00
2023-02-12T23:39:15.975Z,32.47
2023-02-12T23:41:43.261Z,31.50
2023-02-12T23:44:10.692Z,35.50
2023-02-12T23:46:37.909Z,30.43
2023-02-12T23:49:24.195Z,28.93
2023-02-12T23:51:51.584Z,28.70
2023-02-12T23:54:18.784Z,30.93
2023-02-12T23:56:46.026Z,29.43
2023-02-12T23:59:13.202Z,29.07
